METAR & TAF Report
Available data for CYAM from the past 6 hours
SAULT STE MARIE, ON
Metar
CYAM 250712Z 07003KT 2 1/2SM -DZ BR OVC005 15/15 A2989 RMK FG1ST7 VIS VRB 1 3/4 - 4 CIG VRB 3-7 SLP125 DENSITY ALT 800FT

07:12 UTC

Wind: 70° 3kt

Visibility: 2.5 SM

Sky: OVC 500 ft

Temp: 15 deg C / 59 deg F

Dewpoint: 15 deg C / 59 deg F

Pressure: 29.89 inHg

TAF
TAF AMD CYAM 250549Z 2505/2514 VRB03KT P6SM SCT007 OVC010 TEMPO 2505/2508 5SM -DZ -RA BR BKN006 FM250800 VRB03KT 2SM -DZ BR OVC004 TEMPO 2508/2514 6SM BR OVC006 PROB30 2510/2514 2SM TSRA BR BKN006 OVC015CB RMK NXT FCST BY 250800Z
NOTAM

Click here for NOTAMs.